»·PEaware :: SWA5514 KDEN-KSJC

SWA5514 :: KDEN-KSJC

FLIGHT INFORMATION

Flight Status: Arrived
Operator:
Southwest Airlines
More flights by this operator :: More flights under this callsign
Pilot: Jac C. (16067)
Aircraft: BOEING 737-800
(B738)
More flights by this aircraft type
Origin: KDEN Denver Intl
United States
Destination: KSJC Mineta San Jose Intl
United States
More flights between these airports :: More routes between these airports
Route: +COORZ3 VOAXA Q136 RUMPS KNGRY RAZRR4
File this flight plan on PilotEdge
Remarks:
Altitude:
(Current/Filed)
40,000ft
Speed:
(Current/Filed)
448kts
Departed: 17-Mar-18 04:12 PM
Arrived: 17-Mar-18 06:30 PM
Distance/Time
Traveled:
822nm/2:18
Distance/Time
To Go:
Arrived

Flight Plot

Page will automatically refresh every two minutes.

Flight plan parsing failed; only flown route is shown


Map Options




Map Legend


Flown Route
Filed Route
Departure Airport
Arrival Airport
Navaid (VOR, NDB)
Fix

Horizontal Profiles

Position Reports

Time Latitude Longitude Heading Altitude Ground
Speed
17-Mar-18 15:35 39.858124 -104.678056 359 5438ft 0kts
17-Mar-18 15:36 39.858124 -104.678056 359 5438ft 0kts
17-Mar-18 15:37 39.858124 -104.678056 359 5438ft 0kts
17-Mar-18 15:38 39.858124 -104.678056 359 5438ft 0kts
17-Mar-18 15:39 39.858124 -104.678056 359 5438ft 0kts
17-Mar-18 15:40 39.858124 -104.678056 359 5438ft 0kts
17-Mar-18 15:41 39.858124 -104.678056 359 5438ft 0kts
17-Mar-18 15:42 39.858124 -104.678056 359 5438ft 0kts
17-Mar-18 15:43 39.858124 -104.678056 0 5439ft 0kts
17-Mar-18 15:44 39.858124 -104.678056 0 5439ft 0kts
17-Mar-18 15:45 39.858124 -104.678056 0 5439ft 0kts
17-Mar-18 15:46 39.858124 -104.678056 0 5439ft 0kts
17-Mar-18 15:47 39.858124 -104.678056 0 5439ft 0kts
17-Mar-18 15:48 39.858124 -104.678056 0 5439ft 0kts
17-Mar-18 15:49 39.858124 -104.678056 0 5439ft 0kts
17-Mar-18 15:50 39.858124 -104.678056 0 5439ft 0kts
17-Mar-18 15:51 39.858124 -104.678056 0 5439ft 0kts
17-Mar-18 15:52 39.858124 -104.678056 0 5439ft 0kts
17-Mar-18 15:53 39.858124 -104.678056 0 5439ft 0kts
17-Mar-18 15:54 39.858124 -104.678056 0 5439ft 0kts
17-Mar-18 15:55 39.858102 -104.678055 0 5439ft 1kts
17-Mar-18 15:56 39.857501 -104.678221 44 5439ft 2kts
17-Mar-18 15:57 39.857418 -104.678535 90 5439ft 0kts
17-Mar-18 15:58 39.857418 -104.678535 90 5439ft 0kts
17-Mar-18 15:59 39.857416 -104.678029 90 5439ft 9kts
17-Mar-18 16:00 39.857391 -104.673501 91 5439ft 14kts
17-Mar-18 16:01 39.857343 -104.669148 89 5439ft 0kts
17-Mar-18 16:02 39.857343 -104.668971 89 5439ft 0kts
17-Mar-18 16:03 39.857343 -104.668971 89 5439ft 0kts
17-Mar-18 16:04 39.856638 -104.667278 91 5439ft 9kts
17-Mar-18 16:05 39.856833 -104.664412 91 5439ft 0kts
17-Mar-18 16:06 39.856833 -104.664412 91 5439ft 0kts
17-Mar-18 16:07 39.856865 -104.662650 71 5439ft 9kts
17-Mar-18 16:08 39.861108 -104.662073 82 5439ft 6kts
17-Mar-18 16:09 39.861101 -104.661733 91 5439ft 0kts
17-Mar-18 16:10 39.861101 -104.661725 91 5439ft 0kts
17-Mar-18 16:11 39.856379 -104.660181 180 5439ft 94kts
17-Mar-18 16:12 39.816818 -104.675327 240 7566ft 193kts
17-Mar-18 16:13 39.812306 -104.761871 265 9404ft 270kts
17-Mar-18 16:14 39.817823 -104.868456 279 11563ft 323kts
17-Mar-18 16:15 39.834731 -104.984965 275 15059ft 333kts
17-Mar-18 16:16 39.856469 -105.098611 281 18173ft 348kts
17-Mar-18 16:17 39.883480 -105.222970 281 21074ft 363kts
17-Mar-18 16:18 39.902101 -105.352343 263 23711ft 365kts
17-Mar-18 16:19 39.888767 -105.484328 258 26107ft 372kts
17-Mar-18 16:20 39.872848 -105.619286 257 28184ft 380kts
17-Mar-18 16:21 39.856722 -105.756522 259 30038ft 389kts
17-Mar-18 16:22 39.844775 -105.898393 259 31607ft 397kts
17-Mar-18 16:23 39.832285 -106.041119 259 33415ft 393kts
17-Mar-18 16:24 39.820216 -106.182242 259 35090ft 390kts
17-Mar-18 16:25 39.807846 -106.321968 259 36579ft 388kts
17-Mar-18 16:26 39.795074 -106.460968 259 37926ft 387kts
17-Mar-18 16:27 39.781260 -106.599674 258 39156ft 385kts
17-Mar-18 16:28 39.765915 -106.738095 258 39877ft 391kts
17-Mar-18 16:29 39.750285 -106.877364 257 39872ft 386kts
17-Mar-18 16:30 39.734778 -107.016183 258 39878ft 388kts
17-Mar-18 16:31 39.722063 -107.131699 257 39889ft 388kts
17-Mar-18 16:32 39.706407 -107.270735 257 39909ft 389kts
17-Mar-18 16:33 39.690517 -107.409580 257 39923ft 389kts
17-Mar-18 16:34 39.674413 -107.548475 257 39894ft 389kts
17-Mar-18 16:35 39.658041 -107.688052 257 39863ft 390kts
17-Mar-18 16:36 39.641563 -107.827049 257 39836ft 390kts
17-Mar-18 16:37 39.624853 -107.966520 256 39832ft 390kts
17-Mar-18 16:38 39.608012 -108.105535 256 39832ft 390kts
17-Mar-18 16:39 39.591027 -108.244433 256 39833ft 390kts
17-Mar-18 16:40 39.573816 -108.383717 256 39831ft 390kts
17-Mar-18 16:41 39.556531 -108.522171 256 39829ft 389kts
17-Mar-18 16:42 39.539121 -108.660268 256 39829ft 388kts
17-Mar-18 16:43 39.521525 -108.798427 256 39826ft 388kts
17-Mar-18 16:44 39.503870 -108.935784 256 39824ft 387kts
17-Mar-18 16:45 39.486015 -109.073347 256 39825ft 386kts
17-Mar-18 16:46 39.468088 -109.210154 256 39825ft 386kts
17-Mar-18 16:47 39.449983 -109.347010 255 39823ft 386kts
17-Mar-18 16:48 39.431662 -109.484260 255 39824ft 386kts
17-Mar-18 16:49 39.413473 -109.621072 255 39818ft 386kts
17-Mar-18 16:50 39.394829 -109.758134 255 39817ft 386kts
17-Mar-18 16:51 39.375940 -109.894598 255 39820ft 386kts
17-Mar-18 16:52 39.357290 -110.031096 255 39820ft 386kts
17-Mar-18 16:53 39.338690 -110.168172 255 39819ft 386kts
17-Mar-18 16:54 39.319927 -110.304703 255 39818ft 386kts
17-Mar-18 16:55 39.301193 -110.441258 255 39818ft 388kts
17-Mar-18 16:56 39.282576 -110.578662 255 39817ft 387kts
17-Mar-18 16:57 39.263674 -110.715487 255 39817ft 387kts
17-Mar-18 16:58 39.244442 -110.852919 255 39831ft 389kts
17-Mar-18 16:59 39.225057 -110.989982 255 39837ft 389kts
17-Mar-18 17:00 39.205457 -111.127272 255 39853ft 390kts
17-Mar-18 17:01 39.185601 -111.265100 255 39861ft 390kts
17-Mar-18 17:02 39.165614 -111.402620 255 39868ft 391kts
17-Mar-18 17:03 39.145363 -111.540747 255 39884ft 391kts
17-Mar-18 17:04 39.125000 -111.678453 255 39900ft 392kts
17-Mar-18 17:05 39.104440 -111.816297 255 39931ft 392kts
17-Mar-18 17:06 39.083652 -111.954515 255 39948ft 392kts
17-Mar-18 17:07 39.062723 -112.092496 255 39953ft 395kts
17-Mar-18 17:08 39.041561 -112.230852 255 39960ft 394kts
17-Mar-18 17:09 39.020179 -112.369516 255 39960ft 394kts
17-Mar-18 17:10 38.998712 -112.507548 255 39959ft 394kts
17-Mar-18 17:11 38.976994 -112.646086 255 39957ft 395kts
17-Mar-18 17:12 38.954992 -112.784953 255 39952ft 397kts
17-Mar-18 17:13 38.932857 -112.923795 255 39945ft 396kts
17-Mar-18 17:14 38.910416 -113.063870 255 39939ft 403kts
17-Mar-18 17:15 38.887800 -113.203983 255 39941ft 398kts
17-Mar-18 17:16 38.865106 -113.342955 255 39938ft 397kts
17-Mar-18 17:17 38.842358 -113.481363 254 39938ft 395kts
17-Mar-18 17:18 38.819451 -113.619523 254 39932ft 397kts
17-Mar-18 17:19 38.796209 -113.758325 254 39940ft 399kts
17-Mar-18 17:20 38.772982 -113.896097 254 39938ft 395kts
17-Mar-18 17:21 38.749437 -114.034218 254 39928ft 393kts
17-Mar-18 17:22 38.726082 -114.171637 254 39933ft 396kts
17-Mar-18 17:23 38.702292 -114.309755 255 39932ft 399kts
17-Mar-18 17:24 38.678118 -114.449236 254 39929ft 402kts
17-Mar-18 17:25 38.653742 -114.589015 254 39925ft 404kts
17-Mar-18 17:26 38.629020 -114.729373 254 39927ft 406kts
17-Mar-18 17:27 38.603911 -114.870871 254 39929ft 408kts
17-Mar-18 17:28 38.578545 -115.012590 254 39929ft 410kts
17-Mar-18 17:29 38.552909 -115.154696 254 39933ft 411kts
17-Mar-18 17:30 38.526963 -115.297627 254 39934ft 413kts
17-Mar-18 17:31 38.500871 -115.440347 254 39934ft 414kts
17-Mar-18 17:32 38.474461 -115.583767 254 39931ft 414kts
17-Mar-18 17:33 38.447918 -115.726873 254 39929ft 415kts
17-Mar-18 17:34 38.421977 -115.865742 254 39928ft 416kts
17-Mar-18 17:35 38.395172 -116.009582 254 39930ft 416kts
17-Mar-18 17:36 38.367965 -116.152898 254 39935ft 417kts
17-Mar-18 17:37 38.340362 -116.296712 254 39933ft 417kts
17-Mar-18 17:38 38.309803 -116.439042 252 39932ft 417kts
17-Mar-18 17:39 38.277458 -116.580849 252 39932ft 418kts
17-Mar-18 17:40 38.244922 -116.723317 252 39931ft 419kts
17-Mar-18 17:41 38.212732 -116.865764 252 39930ft 420kts
17-Mar-18 17:42 38.180403 -117.008352 252 39930ft 420kts
17-Mar-18 17:43 38.147302 -117.151201 252 39930ft 420kts
17-Mar-18 17:44 38.111314 -117.292146 245 39930ft 420kts
17-Mar-18 17:45 38.061127 -117.426550 244 39931ft 420kts
17-Mar-18 17:46 38.010629 -117.560293 244 39931ft 421kts
17-Mar-18 17:47 37.959992 -117.694068 245 39931ft 421kts
17-Mar-18 17:48 37.908962 -117.828158 244 39930ft 422kts
17-Mar-18 17:49 37.857968 -117.961757 245 39930ft 422kts
17-Mar-18 17:50 37.807020 -118.096052 245 39927ft 423kts
17-Mar-18 17:51 37.793454 -118.131568 244 39926ft 423kts
17-Mar-18 17:52 37.742176 -118.265261 244 39922ft 423kts
17-Mar-18 17:53 37.690517 -118.399230 244 39925ft 423kts
17-Mar-18 17:54 37.638879 -118.532541 245 39930ft 423kts
17-Mar-18 17:55 37.587242 -118.665660 245 39937ft 423kts
17-Mar-18 17:56 37.535291 -118.798884 245 39939ft 422kts
17-Mar-18 17:57 37.483155 -118.931360 245 39941ft 422kts
17-Mar-18 17:58 37.451577 -119.020111 252 39946ft 421kts
17-Mar-18 17:59 37.424499 -119.131914 254 39954ft 420kts
17-Mar-18 18:00 37.391723 -119.268667 254 38358ft 404kts
17-Mar-18 18:01 37.359151 -119.403897 254 35858ft 401kts
17-Mar-18 18:02 37.327818 -119.535387 254 33941ft 385kts
17-Mar-18 18:03 37.297516 -119.662080 254 32119ft 371kts
17-Mar-18 18:04 37.267875 -119.783620 254 30413ft 358kts
17-Mar-18 18:05 37.239067 -119.900922 253 28758ft 346kts
17-Mar-18 18:06 37.220242 -120.017933 262 27107ft 338kts
17-Mar-18 18:07 37.208204 -120.133486 263 25524ft 334kts
17-Mar-18 18:08 37.195911 -120.247522 262 23948ft 326kts
17-Mar-18 18:09 37.183608 -120.360471 262 22390ft 326kts
17-Mar-18 18:10 37.171411 -120.473022 262 20849ft 325kts
17-Mar-18 18:11 37.158887 -120.584901 262 19334ft 323kts
17-Mar-18 18:12 37.146167 -120.697081 262 17686ft 325kts
17-Mar-18 18:13 37.134017 -120.806971 263 16824ft 303kts
17-Mar-18 18:14 37.122642 -120.909764 262 15672ft 292kts
17-Mar-18 18:15 37.111316 -121.010135 262 13828ft 288kts
17-Mar-18 18:16 37.100227 -121.108660 265 12114ft 286kts
17-Mar-18 18:17 37.106841 -121.203382 278 11007ft 267kts
17-Mar-18 18:18 37.117617 -121.295724 278 9556ft 273kts
17-Mar-18 18:19 37.128502 -121.391644 278 8247ft 281kts
17-Mar-18 18:20 37.139396 -121.488128 278 6930ft 271kts
17-Mar-18 18:21 37.149439 -121.579018 277 5691ft 256kts
17-Mar-18 18:22 37.159012 -121.665914 277 4546ft 245kts
17-Mar-18 18:23 37.186907 -121.737679 316 3747ft 226kts
17-Mar-18 18:24 37.232491 -121.785946 318 2752ft 207kts
17-Mar-18 18:25 37.270664 -121.826620 317 2040ft 152kts
17-Mar-18 18:26 37.299615 -121.857765 317 1493ft 128kts
17-Mar-18 18:27 37.326878 -121.887426 317 895ft 126kts
17-Mar-18 18:28 37.353806 -121.916979 313 172ft 130kts
17-Mar-18 18:29 37.370711 -121.935146 20 70ft 13kts
17-Mar-18 18:30 37.371660 -121.933744 86 70ft 10kts
17-Mar-18 18:31 37.368993 -121.930638 137 70ft 12kts
17-Mar-18 18:32 37.366360 -121.927743 138 70ft 6kts
17-Mar-18 18:33 37.366717 -121.926351 49 70ft 0kts
17-Mar-18 18:34 37.366717 -121.926351 49 70ft 0kts
17-Mar-18 18:35 37.366717 -121.926351 49 70ft 0kts

Navigation Log

Ident Type
Flight plan parsing failed, navigation log unavailable